Flugplatz Rastatt (Baldenau) (UL)

Hier findest Du alle Informationen zum Flugplatz Rastatt (Baldenau) (UL).

Informationen für Piloten zum Flugplatz Rastatt (Baldenau)

Hier findest Du alle relevanten Informationen, die Du als Pilot benötigst, um Rastatt (Baldenau) anzufliegen.

Flugplatz: Rastatt (Baldenau) ICAO-Code: UL Flugplatz
Frequenz Turm: 122.475 Mhz GAFOR Gebiet: -
Frequenz Ground: 122.475 Mhz Mogas: nein
Platzrunde: N 1200 ft Landegebühr: -
Platzhöhe: Sunrise: 03:29 Uhr UTC
Pisten: 01/19 - 650 m x 30 m, GRAS Sunset: 19:19 Uhr UTC

Mitglieder, die in Rastatt (Baldenau) fliegen

Flugwetter am Flugplatz Rastatt (Baldenau)

Die METAR Information stammen aus EDSB (14.06 km entfernt).

METAR Code:
2022/03/02 11:50
EDSB 021150Z VRB03KT CAVOK 04/M04 Q1023

Flugschulen am Flugplatz Rastatt (Baldenau)

Am Flugplatz Rastatt (Baldenau) gibt es leider keine Flugschule.

Benachbarte Flugplätze und Flugschulen

Es gibt 10 weitere Flugplätze in einem Umkreis von 50 km um den Flugplatz Rastatt (Baldenau).

Jetzt anmelden

Passwort vergessen

Umfrage Archiv

Sendet Ihr ADS-B und/oder FLARM?

Ja
81.8 %
Nein
18.2 %
Stimmen: 148 | Diskussion
Anzeige: Roland Aircraft
Statistik Alle Mitglieder

Aktuell sind 63 Besucher online.

Anzeige: ULPower Aero Engines Anzeige: Pocket FMS